Time;durP1;ratioP1;P1;durP2;ratioP2;P2;SDS_P1;SDS_P2;PMS_P1;PMS_P2;Temp;Humidity;BMP_temperature;BMP_pressure;BME280_temperature;BME280_humidity;BME280_pressure;Samples;Min_cycle;Max_cycle;Signal;HPM_P1;HPM_P2
2023/02/11 00:04:37;;;;;;;;;;;0.90;1.00;;;;;;5093887;28;20377;-82
2023/02/11 00:07:07;;;;;;;;;;;1.00;1.00;;;;;;5094232;28;19915;-75
2023/02/11 00:09:33;;;;;;;;;;;1.10;1.00;;;;;;5085190;28;20450;-75
2023/02/11 00:12:01;;;;;;;;;;;1.10;1.00;;;;;;5087740;28;19958;-75
2023/02/11 00:14:31;;;;;;;;;;;1.20;1.00;;;;;;5094064;28;19908;-75
2023/02/11 00:17:01;;;;;;;;;;;1.30;1.00;;;;;;5093304;28;20008;-75
2023/02/11 00:19:37;;;;;;;;;;;1.30;1.00;;;;;;5081258;28;19915;-75
2023/02/11 00:25:06;;;;;;;;;;;1.40;1.00;;;;;;5094301;28;20283;-83
2023/02/11 00:27:31;;;;;;;;;;;1.50;1.00;;;;;;5094392;28;19908;-83
2023/02/11 00:30:01;;;;;;;;;;;1.60;1.00;;;;;;5093656;28;19916;-84
2023/02/11 00:35:30;;;;;;;;;;;1.70;1.00;;;;;;5094647;28;20412;-83
2023/02/11 00:40:58;;;;;;;;;;;1.80;1.00;;;;;;5093898;28;20000;-83
2023/02/11 00:47:01;;;;;;;;;;;2.00;1.00;;;;;;5092444;28;19924;-83
2023/02/11 00:52:37;;;;;;;;;;;2.10;1.00;;;;;;5077299;28;19920;-75
2023/02/11 00:55:07;;;;;;;;;;;2.20;1.00;;;;;;5089936;28;20002;-75
2023/02/11 00:57:33;;;;;;;;;;;2.30;1.00;;;;;;5089687;28;19912;-76
2023/02/11 01:00:02;;;;;;;;;;;2.30;1.00;;;;;;5097276;28;20374;-75
2023/02/11 01:02:27;;;;;;;;;;;2.40;1.00;;;;;;5086651;28;20003;-75
2023/02/11 01:04:53;;;;;;;;;;;2.40;1.00;;;;;;5083855;28;20446;-75
2023/02/11 01:07:26;;;;;;;;;;;2.50;1.00;;;;;;5097805;28;20264;-75
2023/02/11 01:09:52;;;;;;;;;;;2.50;1.00;;;;;;5097192;28;19916;-75
2023/02/11 01:12:17;;;;;;;;;;;2.50;1.00;;;;;;5097041;28;20259;-75
2023/02/11 01:14:43;;;;;;;;;;;2.50;1.00;;;;;;5096971;28;19908;-75
2023/02/11 01:17:09;;;;;;;;;;;2.50;1.00;;;;;;5096966;28;19908;-76
2023/02/11 01:19:43;;;;;;;;;;;2.50;1.00;;;;;;5083801;28;19915;-75
2023/02/11 01:22:09;;;;;;;;;;;2.50;1.00;;;;;;5097638;28;19909;-75
2023/02/11 01:24:34;;;;;;;;;;;2.50;1.00;;;;;;5096913;28;20015;-76
2023/02/11 01:27:00;;;;;;;;;;;2.50;1.00;;;;;;5096793;28;19912;-75
2023/02/11 01:29:37;;;;;;;;;;;2.50;1.00;;;;;;5077480;28;20018;-75
2023/02/11 01:32:03;;;;;;;;;;;2.50;1.00;;;;;;5089811;28;19944;-76
2023/02/11 01:34:31;;;;;;;;;;;2.50;1.00;;;;;;5082810;28;20001;-75
2023/02/11 01:37:07;;;;;;;;;;;2.50;1.00;;;;;;5096976;28;19912;-76
2023/02/11 01:39:37;;;;;;;;;;;2.50;1.00;;;;;;5084451;28;19915;-76
2023/02/11 01:42:17;;;;;;;;;;;2.50;1.00;;;;;;5086277;28;19912;-75
2023/02/11 01:44:43;;;;;;;;;;;2.60;1.00;;;;;;5086882;28;19955;-75
2023/02/11 01:47:20;;;;;;;;;;;2.70;1.00;;;;;;5096758;28;19996;-76
2023/02/11 01:50:07;;;;;;;;;;;2.70;1.00;;;;;;5088201;28;19912;-75
2023/02/11 01:52:35;;;;;;;;;;;2.80;1.00;;;;;;5077074;28;19961;-83
2023/02/11 01:58:03;;;;;;;;;;;2.70;1.00;;;;;;5089498;28;20424;-84
2023/02/11 02:00:55;;;;;;;;;;;2.70;1.00;;;;;;5092632;28;19912;-83
2023/02/11 02:06:36;;;;;;;;;;;2.80;1.00;;;;;;5096675;28;19939;-76
2023/02/11 02:09:07;;;;;;;;;;;2.80;1.00;;;;;;5092805;28;19991;-75
2023/02/11 02:11:49;;;;;;;;;;;2.80;1.00;;;;;;5096051;28;19916;-76
2023/02/11 02:14:15;;;;;;;;;;;2.80;1.00;;;;;;5096234;28;19912;-75
2023/02/11 02:16:40;;;;;;;;;;;2.90;1.00;;;;;;5090156;28;19920;-75
2023/02/11 02:22:31;;;;;;;;;;;2.80;1.00;;;;;;5078044;28;19908;-84
2023/02/11 02:37:16;;;;;;;;;;;2.90;1.00;;;;;;5087473;28;19954;-75
2023/02/11 02:39:43;;;;;;;;;;;3.00;1.00;;;;;;5081378;28;20389;-75
2023/02/11 02:42:14;;;;;;;;;;;3.00;1.00;;;;;;5095476;28;19908;-75
2023/02/11 02:44:46;;;;;;;;;;;3.00;1.00;;;;;;5090657;28;20003;-75
2023/02/11 02:47:11;;;;;;;;;;;3.00;1.00;;;;;;5081611;28;20013;-75
2023/02/11 02:50:07;;;;;;;;;;;2.90;1.00;;;;;;5078914;28;20377;-75
2023/02/11 02:52:43;;;;;;;;;;;2.80;1.00;;;;;;5081557;28;19909;-84
2023/02/11 02:58:25;;;;;;;;;;;2.90;1.00;;;;;;5087522;28;19919;-83
2023/02/11 03:04:00;;;;;;;;;;;3.00;1.00;;;;;;5095171;28;19915;-84
2023/02/11 03:06:49;;;;;;;;;;;3.00;1.00;;;;;;5094924;28;20264;-76
2023/02/11 03:09:21;;;;;;;;;;;3.10;1.00;;;;;;5088155;28;19912;-75
2023/02/11 03:12:01;;;;;;;;;;;3.10;1.00;;;;;;5084450;28;19916;-75
2023/02/11 03:14:44;;;;;;;;;;;3.20;1.00;;;;;;5095056;28;20394;-75
2023/02/11 03:17:31;;;;;;;;;;;3.10;1.00;;;;;;5092161;28;19954;-75
2023/02/11 03:20:03;;;;;;;;;;;3.10;1.00;;;;;;5074930;28;19958;-75
2023/02/11 03:26:03;;;;;;;;;;;3.00;1.00;;;;;;5094930;28;20420;-84
2023/02/11 03:28:35;;;;;;;;;;;2.80;1.00;;;;;;4996084;28;20354;-83
2023/02/11 03:31:08;;;;;;;;;;;2.90;1.00;;;;;;4995135;28;19917;-84
2023/02/11 03:36:44;;;;;;;;;;;3.00;1.00;;;;;;5013304;28;19948;-81
2023/02/11 03:42:14;;;;;;;;;;;2.90;1.00;;;;;;5012706;28;19916;-84
2023/02/11 03:45:01;;;;;;;;;;;2.90;1.00;;;;;;5013013;28;20464;-83
2023/02/11 03:50:31;;;;;;;;;;;2.80;1.00;;;;;;4993315;28;19917;-83
2023/02/11 03:53:02;;;;;;;;;;;2.80;1.00;;;;;;4993323;28;19920;-75
2023/02/11 03:55:28;;;;;;;;;;;2.80;1.00;;;;;;4995530;28;19917;-76
2023/02/11 03:57:55;;;;;;;;;;;2.70;1.00;;;;;;5012375;28;19931;-75
2023/02/11 04:00:28;;;;;;;;;;;2.70;1.00;;;;;;5007088;28;19924;-75
2023/02/11 04:02:53;;;;;;;;;;;2.60;1.00;;;;;;4992662;28;20452;-75
2023/02/11 04:05:37;;;;;;;;;;;2.60;1.00;;;;;;5051989;28;19999;-75
2023/02/11 04:11:06;;;;;;;;;;;2.50;1.00;;;;;;5076879;28;19923;-83
2023/02/11 04:16:34;;;;;;;;;;;2.60;1.00;;;;;;5094425;28;19915;-84
2023/02/11 04:22:03;;;;;;;;;;;2.60;1.00;;;;;;5098777;28;19916;-80
2023/02/11 04:27:37;;;;;;;;;;;2.60;1.00;;;;;;5085317;28;20337;-75
2023/02/11 04:30:07;;;;;;;;;;;2.70;1.00;;;;;;5083294;28;19913;-75
2023/02/11 04:32:55;;;;;;;;;;;2.70;1.00;;;;;;5091496;28;19954;-75
2023/02/11 04:35:25;;;;;;;;;;;2.80;1.00;;;;;;5091149;28;19918;-75
2023/02/11 04:38:19;;;;;;;;;;;2.90;1.00;;;;;;5085013;28;19919;-83
2023/02/11 04:47:27;;;;;;;;;;;3.20;1.00;;;;;;5081012;28;20406;-84
2023/02/11 04:50:01;;;;;;;;;;;3.30;1.00;;;;;;5087935;28;19913;-84
2023/02/11 04:53:01;;;;;;;;;;;3.30;1.00;;;;;;5067001;28;19908;-76
2023/02/11 04:55:31;;;;;;;;;;;3.20;1.00;;;;;;5077329;28;19912;-75
2023/02/11 04:57:57;;;;;;;;;;;3.30;1.00;;;;;;5078768;28;19908;-75
2023/02/11 05:00:43;;;;;;;;;;;3.30;1.00;;;;;;5082645;28;20396;-75
2023/02/11 05:03:15;;;;;;;;;;;3.30;1.00;;;;;;5093235;28;19912;-75
2023/02/11 05:05:50;;;;;;;;;;;3.30;1.00;;;;;;5087113;28;19919;-75
2023/02/11 05:11:19;;;;;;;;;;;3.40;1.00;;;;;;5096699;28;19966;-84
2023/02/11 05:19:50;;;;;;;;;;;3.20;1.00;;;;;;5091870;28;20387;-84
2023/02/11 05:22:37;;;;;;;;;;;3.20;1.00;;;;;;5097749;28;19909;-83
2023/02/11 05:25:07;;;;;;;;;;;3.20;1.00;;;;;;5085487;28;19927;-76
2023/02/11 05:27:33;;;;;;;;;;;3.10;1.00;;;;;;5081808;28;19909;-75
2023/02/11 05:30:07;;;;;;;;;;;3.20;1.00;;;;;;5096151;28;19931;-75
2023/02/11 05:32:37;;;;;;;;;;;3.10;1.00;;;;;;5079468;28;19909;-75
2023/02/11 05:35:13;;;;;;;;;;;3.10;1.00;;;;;;5077345;28;19920;-75
2023/02/11 05:37:55;;;;;;;;;;;3.10;1.00;;;;;;5093496;28;19908;-75
2023/02/11 05:40:25;;;;;;;;;;;3.10;1.00;;;;;;5092917;28;19919;-75
2023/02/11 05:42:55;;;;;;;;;;;3.10;1.00;;;;;;5096309;28;19916;-76
2023/02/11 05:45:37;;;;;;;;;;;3.10;1.00;;;;;;5094302;28;19924;-75
2023/02/11 05:48:13;;;;;;;;;;;3.10;1.00;;;;;;5082169;28;19912;-76
2023/02/11 05:50:44;;;;;;;;;;;3.10;1.00;;;;;;5096554;28;19908;-75
2023/02/11 05:53:10;;;;;;;;;;;3.10;1.00;;;;;;5094902;28;19912;-76
2023/02/11 05:55:43;;;;;;;;;;;3.10;1.00;;;;;;5090297;28;19908;-76
2023/02/11 05:58:43;;;;;;;;;;;3.00;1.00;;;;;;5083204;28;19912;-75
2023/02/11 06:01:13;;;;;;;;;;;3.10;1.00;;;;;;5086699;28;19965;-75
2023/02/11 06:03:39;;;;;;;;;;;3.20;1.00;;;;;;5087058;28;19909;-75
2023/02/11 06:06:11;;;;;;;;;;;3.10;1.00;;;;;;5081915;28;20329;-75
2023/02/11 06:11:55;;;;;;;;;;;3.30;1.00;;;;;;5094725;28;19938;-84
2023/02/11 06:17:49;;;;;;;;;;;3.10;1.00;;;;;;5076352;28;19920;-83
2023/02/11 06:23:18;;;;;;;;;;;3.10;1.00;;;;;;5087296;28;19950;-83
2023/02/11 06:34:52;;;;;;;;;;;2.90;1.00;;;;;;5081393;28;19957;-79
2023/02/11 06:37:37;;;;;;;;;;;2.80;1.00;;;;;;5095336;28;19908;-79
2023/02/11 06:40:03;;;;;;;;;;;2.80;1.00;;;;;;5082431;28;19917;-72
2023/02/11 06:42:31;;;;;;;;;;;2.80;1.00;;;;;;5088969;28;19958;-72
2023/02/11 06:44:57;;;;;;;;;;;2.70;1.00;;;;;;5083701;28;19962;-72
2023/02/11 06:47:22;;;;;;;;;;;2.60;1.00;;;;;;5081284;28;19912;-72
2023/02/11 06:49:48;;;;;;;;;;;2.60;1.00;;;;;;5085848;28;19916;-72
2023/02/11 06:52:14;;;;;;;;;;;2.50;1.00;;;;;;5083826;28;19916;-72
2023/02/11 06:57:42;;;;;;;;;;;2.50;1.00;;;;;;5103483;28;19977;-78
2023/02/11 07:06:15;;;;;;;;;;;2.40;1.00;;;;;;5094871;28;19981;-79
2023/02/11 07:09:01;;;;;;;;;;;2.40;1.00;;;;;;5090052;28;20018;-79
2023/02/11 07:17:33;;;;;;;;;;;2.40;1.00;;;;;;5086984;28;19972;-78
2023/02/11 07:20:31;;;;;;;;;;;2.40;1.00;;;;;;5092030;28;19919;-79
2023/02/11 07:23:13;;;;;;;;;;;2.50;1.00;;;;;;5094330;28;20006;-79
2023/02/11 07:25:39;;;;;;;;;;;2.50;1.00;;;;;;5085286;28;19917;-72
2023/02/11 07:28:07;;;;;;;;;;;2.70;1.00;;;;;;5077437;28;20325;-73
2023/02/11 07:30:33;;;;;;;;;;;2.70;1.00;;;;;;5076584;28;19920;-68
2023/02/11 07:32:59;;;;;;;;;;;2.80;1.00;;;;;;5093956;28;19913;-70
2023/02/11 07:35:24;;;;;;;;;;;2.80;1.00;;;;;;5094625;28;19912;-87
2023/02/11 07:40:53;;;;;;;;;;;3.00;1.00;;;;;;5078075;28;19954;-70
2023/02/11 07:43:19;;;;;;;;;;;3.00;1.00;;;;;;5083561;28;19939;-70
2023/02/11 07:45:44;;;;;;;;;;;3.10;1.00;;;;;;5082131;28;19916;-70
2023/02/11 07:48:10;;;;;;;;;;;3.30;1.00;;;;;;5085816;28;19954;-70
2023/02/11 07:50:35;;;;;;;;;;;3.40;1.00;;;;;;5084408;28;19913;-71
2023/02/11 07:53:01;;;;;;;;;;;3.60;1.00;;;;;;5088274;28;20321;-71
2023/02/11 07:55:32;;;;;;;;;;;3.70;1.00;;;;;;5088029;28;19908;-73
2023/02/11 07:58:01;;;;;;;;;;;3.80;1.00;;;;;;5076052;28;20278;-75
2023/02/11 08:00:27;;;;;;;;;;;4.00;1.00;;;;;;5077186;28;19912;-73
2023/02/11 08:03:13;;;;;;;;;;;4.10;1.00;;;;;;5088381;28;19915;-74
2023/02/11 08:05:49;;;;;;;;;;;4.20;1.00;;;;;;5093926;28;19916;-73
2023/02/11 08:08:26;;;;;;;;;;;4.30;1.00;;;;;;5089300;28;19911;-73
2023/02/11 08:11:13;;;;;;;;;;;4.40;1.00;;;;;;5081011;28;20270;-74
2023/02/11 08:13:39;;;;;;;;;;;4.40;1.00;;;;;;5092621;28;19912;-73
2023/02/11 08:16:07;;;;;;;;;;;4.40;1.00;;;;;;5088301;28;20010;-74
2023/02/11 08:18:35;;;;;;;;;;;4.40;1.00;;;;;;5094052;28;19983;-74
2023/02/11 08:21:07;;;;;;;;;;;4.40;1.00;;;;;;5093744;28;19912;-73
2023/02/11 08:23:38;;;;;;;;;;;4.40;1.00;;;;;;5080295;28;19908;-73
2023/02/11 08:26:05;;;;;;;;;;;4.60;1.00;;;;;;5085996;28;19966;-70
2023/02/11 08:28:33;;;;;;;;;;;4.70;1.00;;;;;;5079175;28;19913;-70
2023/02/11 08:31:03;;;;;;;;;;;4.90;1.00;;;;;;5085056;28;19966;-71
2023/02/11 08:33:29;;;;;;;;;;;4.90;1.00;;;;;;5090244;28;19999;-70
2023/02/11 08:35:54;;;;;;;;;;;5.00;1.00;;;;;;5092348;28;19947;-70
2023/02/11 08:38:20;;;;;;;;;;;5.10;1.00;;;;;;5083831;28;20023;-70
2023/02/11 08:40:58;;;;;;;;;;;5.20;1.00;;;;;;5084233;28;19912;-73
2023/02/11 08:43:32;;;;;;;;;;;5.10;1.00;;;;;;5074797;28;19912;-73
2023/02/11 08:46:01;;;;;;;;;;;5.40;1.00;;;;;;5085014;28;19916;-73
2023/02/11 08:48:27;;;;;;;;;;;5.60;1.00;;;;;;5093931;28;19916;-73
2023/02/11 08:50:53;;;;;;;;;;;5.70;1.00;;;;;;5081722;28;19923;-73
2023/02/11 08:53:25;;;;;;;;;;;5.90;1.00;;;;;;5082572;28;20003;-74
2023/02/11 08:55:52;;;;;;;;;;;5.90;1.00;;;;;;5081262;28;19913;-73
2023/02/11 08:58:18;;;;;;;;;;;5.90;1.00;;;;;;5086472;28;19919;-74
2023/02/11 09:00:44;;;;;;;;;;;5.80;1.00;;;;;;5089159;28;19921;-74
2023/02/11 09:03:13;;;;;;;;;;;5.70;1.00;;;;;;5090824;28;19948;-73
2023/02/11 09:05:44;;;;;;;;;;;5.90;1.00;;;;;;5091051;28;20317;-74
2023/02/11 09:08:19;;;;;;;;;;;5.80;1.00;;;;;;5089105;28;19919;-73
2023/02/11 09:10:45;;;;;;;;;;;5.60;1.00;;;;;;5093650;28;19920;-70
2023/02/11 09:13:11;;;;;;;;;;;5.70;1.00;;;;;;5086923;28;19923;-70
2023/02/11 09:15:36;;;;;;;;;;;5.90;1.00;;;;;;5083548;28;19916;-70
2023/02/11 09:18:03;;;;;;;;;;;6.00;1.00;;;;;;5091011;28;20258;-70
2023/02/11 09:20:28;;;;;;;;;;;6.00;1.00;;;;;;5090037;28;19909;-70
2023/02/11 09:22:56;;;;;;;;;;;6.10;1.00;;;;;;5091764;28;19974;-70
2023/02/11 09:25:21;;;;;;;;;;;6.30;1.00;;;;;;5092780;28;19925;-70
2023/02/11 09:27:47;;;;;;;;;;;6.00;1.00;;;;;;5085538;28;19920;-70
2023/02/11 09:30:12;;;;;;;;;;;6.20;1.00;;;;;;5083097;28;19920;-70
2023/02/11 09:32:38;;;;;;;;;;;6.30;1.00;;;;;;5096341;28;19908;-70
2023/02/11 09:35:04;;;;;;;;;;;6.40;1.00;;;;;;5089792;28;19950;-70
2023/02/11 09:37:30;;;;;;;;;;;6.60;1.00;;;;;;5092047;28;19919;-70
2023/02/11 09:39:56;;;;;;;;;;;6.70;1.00;;;;;;5087855;28;19935;-70
2023/02/11 09:42:38;;;;;;;;;;;6.60;1.00;;;;;;5090394;28;19984;-70
2023/02/11 09:45:09;;;;;;;;;;;6.60;1.00;;;;;;5080408;28;19965;-69
2023/02/11 09:47:38;;;;;;;;;;;6.70;1.00;;;;;;5087062;28;19917;-70
2023/02/11 09:50:06;;;;;;;;;;;7.00;1.00;;;;;;5073143;28;19992;-70
2023/02/11 09:52:34;;;;;;;;;;;7.00;1.00;;;;;;5086244;28;19923;-70
2023/02/11 09:55:01;;;;;;;;;;;6.90;1.00;;;;;;5075734;28;20264;-70
2023/02/11 09:57:33;;;;;;;;;;;7.00;1.00;;;;;;5090544;28;19912;-75
2023/02/11 10:03:07;;;;;;;;;;;7.30;1.00;;;;;;5094918;28;19923;-75
2023/02/11 10:05:39;;;;;;;;;;;7.40;1.00;;;;;;5094492;28;19923;-76
2023/02/11 10:11:19;;;;;;;;;;;7.30;1.00;;;;;;5081638;28;20302;-74
2023/02/11 10:13:47;;;;;;;;;;;7.20;1.00;;;;;;5092381;28;20374;-74
2023/02/11 10:16:37;;;;;;;;;;;7.40;1.00;;;;;;5090691;28;19931;-76
2023/02/11 10:19:25;;;;;;;;;;;7.60;1.00;;;;;;5092163;28;20282;-73
2023/02/11 10:22:10;;;;;;;;;;;7.40;1.00;;;;;;5095005;28;19923;-72
2023/02/11 10:24:37;;;;;;;;;;;7.10;1.00;;;;;;5088139;28;20263;-72
2023/02/11 10:27:23;;;;;;;;;;;7.00;1.00;;;;;;5087904;28;20274;-72
2023/02/11 10:29:51;;;;;;;;;;;6.90;1.00;;;;;;5084666;28;19909;-73
2023/02/11 10:32:29;;;;;;;;;;;7.00;1.00;;;;;;5086272;28;20000;-72
2023/02/11 10:35:09;;;;;;;;;;;6.90;1.00;;;;;;5092840;28;19912;-73
2023/02/11 10:37:49;;;;;;;;;;;6.70;1.00;;;;;;5095638;28;19909;-72
2023/02/11 10:40:22;;;;;;;;;;;6.60;1.00;;;;;;5082757;28;20352;-73
2023/02/11 10:42:49;;;;;;;;;;;6.60;1.00;;;;;;5083090;28;19915;-69
2023/02/11 10:45:22;;;;;;;;;;;6.50;1.00;;;;;;5093481;28;19916;-70
2023/02/11 10:47:48;;;;;;;;;;;6.50;1.00;;;;;;5083468;28;19912;-70
2023/02/11 10:50:18;;;;;;;;;;;6.60;1.00;;;;;;5092412;28;19915;-70
2023/02/11 10:52:44;;;;;;;;;;;6.70;1.00;;;;;;5082833;28;19950;-70
2023/02/11 10:55:12;;;;;;;;;;;6.60;1.00;;;;;;5076693;28;19948;-70
2023/02/11 10:57:43;;;;;;;;;;;6.60;1.00;;;;;;5091272;28;19909;-69
2023/02/11 11:00:27;;;;;;;;;;;6.60;1.00;;;;;;5090875;28;19912;-69
2023/02/11 11:02:58;;;;;;;;;;;6.60;1.00;;;;;;5082610;28;20271;-70
2023/02/11 11:05:49;;;;;;;;;;;6.70;1.00;;;;;;5086466;28;20343;-70
2023/02/11 11:08:15;;;;;;;;;;;6.80;1.00;;;;;;5077817;28;19955;-70
2023/02/11 11:10:45;;;;;;;;;;;6.90;1.00;;;;;;5086065;28;20279;-70
2023/02/11 11:13:29;;;;;;;;;;;7.10;1.00;;;;;;5068280;28;19954;-70
2023/02/11 11:16:13;;;;;;;;;;;7.10;1.00;;;;;;5086942;28;20077;-70
2023/02/11 11:18:40;;;;;;;;;;;7.40;1.00;;;;;;5087405;28;20359;-70
2023/02/11 11:21:12;;;;;;;;;;;7.40;1.00;;;;;;5084696;28;19920;-70
2023/02/11 11:23:38;;;;;;;;;;;7.40;1.00;;;;;;5088715;28;20298;-70
2023/02/11 11:26:05;;;;;;;;;;;7.60;1.00;;;;;;5094102;28;19916;-70
2023/02/11 11:28:42;;;;;;;;;;;7.60;1.00;;;;;;5091996;28;20314;-70
2023/02/11 11:31:14;;;;;;;;;;;7.50;1.00;;;;;;5085306;28;20385;-70
2023/02/11 11:33:41;;;;;;;;;;;7.70;1.00;;;;;;5092461;28;19908;-70
2023/02/11 11:36:08;;;;;;;;;;;7.60;1.00;;;;;;5093697;28;19908;-70
2023/02/11 11:38:35;;;;;;;;;;;7.70;1.00;;;;;;5082914;28;19908;-70
2023/02/11 11:41:13;;;;;;;;;;;7.80;1.00;;;;;;5092103;28;19918;-70
2023/02/11 11:44:07;;;;;;;;;;;8.00;1.00;;;;;;5081617;28;19958;-73
2023/02/11 11:46:45;;;;;;;;;;;8.00;1.00;;;;;;5080540;28;20221;-76
2023/02/11 11:52:37;;;;;;;;;;;8.30;1.00;;;;;;5086505;28;19916;-75
2023/02/11 11:55:16;;;;;;;;;;;8.10;1.00;;;;;;5094313;28;19915;-76
2023/02/11 12:01:19;;;;;;;;;;;8.20;1.00;;;;;;5093706;28;20434;-76
2023/02/11 12:04:10;;;;;;;;;;;8.20;1.00;;;;;;5094254;28;19908;-75
2023/02/11 12:06:40;;;;;;;;;;;8.30;1.00;;;;;;5084213;28;19919;-76
2023/02/11 12:09:25;;;;;;;;;;;8.60;1.00;;;;;;5093853;28;20105;-76
2023/02/11 12:15:13;;;;;;;;;;;9.20;1.00;;;;;;5073700;28;19924;-79
2023/02/11 12:17:42;;;;;;;;;;;8.90;1.00;;;;;;5085651;28;19912;-78
2023/02/11 12:20:16;;;;;;;;;;;9.00;1.00;;;;;;5089246;28;20459;-77
2023/02/11 12:23:08;;;;;;;;;;;9.00;1.00;;;;;;5092262;28;19912;-79
2023/02/11 12:25:53;;;;;;;;;;;8.90;1.00;;;;;;5100102;28;19911;-77
2023/02/11 12:31:26;;;;;;;;;;;8.60;1.00;;;;;;5093919;28;20364;-77
2023/02/11 12:49:19;;;;;;;;;;;8.50;1.00;;;;;;5092030;28;20325;-78
2023/02/11 12:52:06;;;;;;;;;;;8.20;1.00;;;;;;5089356;28;19995;-78
2023/02/11 13:01:10;;;;;;;;;;;8.20;1.00;;;;;;5097122;28;19950;-78
2023/02/11 13:06:46;;;;;;;;;;;8.50;1.00;;;;;;5008912;28;19937;-70
2023/02/11 13:09:17;;;;;;;;;;;8.40;1.00;;;;;;5013831;28;19949;-70
2023/02/11 13:11:50;;;;;;;;;;;8.50;1.00;;;;;;5012469;28;20364;-71
2023/02/11 13:14:23;;;;;;;;;;;8.40;1.00;;;;;;5012058;28;19917;-73
2023/02/11 13:16:57;;;;;;;;;;;8.60;1.00;;;;;;5008595;28;20401;-74
2023/02/11 13:19:37;;;;;;;;;;;8.70;1.00;;;;;;5015324;28;19909;-73
2023/02/11 13:22:14;;;;;;;;;;;8.60;1.00;;;;;;5017021;28;19920;-73
2023/02/11 13:24:39;;;;;;;;;;;8.60;1.00;;;;;;5015091;28;19949;-73
2023/02/11 13:30:20;;;;;;;;;;;8.70;1.00;;;;;;5002828;28;19960;-70
2023/02/11 13:32:54;;;;;;;;;;;8.80;1.00;;;;;;4994975;28;19914;-70
2023/02/11 13:35:40;;;;;;;;;;;8.90;1.00;;;;;;5002693;28;19967;-70
2023/02/11 13:38:06;;;;;;;;;;;9.00;1.00;;;;;;4958298;28;19921;-70
2023/02/11 13:40:36;;;;;;;;;;;9.00;1.00;;;;;;5026840;28;20019;-69
2023/02/11 13:43:03;;;;;;;;;;;9.10;1.00;;;;;;5019662;28;19992;-69
2023/02/11 13:45:30;;;;;;;;;;;9.10;1.00;;;;;;5027052;28;19972;-70
2023/02/11 13:47:57;;;;;;;;;;;9.20;1.00;;;;;;5022886;28;20340;-70
2023/02/11 13:50:23;;;;;;;;;;;9.20;1.00;;;;;;5019142;28;19921;-70
2023/02/11 13:52:55;;;;;;;;;;;8.80;1.00;;;;;;5034529;28;19915;-70
2023/02/11 13:55:22;;;;;;;;;;;8.80;1.00;;;;;;5035129;28;20205;-70
2023/02/11 14:00:57;;;;;;;;;;;8.50;1.00;;;;;;5017692;28;19937;-73
2023/02/11 14:09:27;;;;;;;;;;;8.30;1.00;;;;;;5022915;28;19924;-73
2023/02/11 14:12:28;;;;;;;;;;;8.20;1.00;;;;;;5028472;28;20332;-74
2023/02/11 14:14:58;;;;;;;;;;;8.20;1.00;;;;;;4972377;28;20389;-73
2023/02/11 14:17:32;;;;;;;;;;;8.10;1.00;;;;;;4993160;28;19909;-74
2023/02/11 14:20:03;;;;;;;;;;;8.10;1.00;;;;;;4994412;28;20044;-75
2023/02/11 14:22:37;;;;;;;;;;;8.10;1.00;;;;;;4993814;28;19910;-74
2023/02/11 14:28:10;;;;;;;;;;;8.20;1.00;;;;;;4993597;28;19916;-73
2023/02/11 14:40:02;;;;;;;;;;;8.20;1.00;;;;;;4993503;28;19957;-76
2023/02/11 14:42:38;;;;;;;;;;;8.20;1.00;;;;;;4997211;28;19926;-75
2023/02/11 14:45:09;;;;;;;;;;;8.40;1.00;;;;;;4983766;28;19942;-75
2023/02/11 14:51:01;;;;;;;;;;;8.50;1.00;;;;;;5043246;28;20290;-76
2023/02/11 14:53:58;;;;;;;;;;;8.40;1.00;;;;;;5089847;28;19912;-75
2023/02/11 14:56:56;;;;;;;;;;;8.40;1.00;;;;;;5085495;28;19908;-75
2023/02/11 14:59:26;;;;;;;;;;;8.50;1.00;;;;;;5080346;28;19916;-75
2023/02/11 15:02:26;;;;;;;;;;;8.40;1.00;;;;;;5082666;28;19915;-75
2023/02/11 15:07:56;;;;;;;;;;;8.40;1.00;;;;;;5080418;28;19935;-76
2023/02/11 15:10:36;;;;;;;;;;;8.60;1.00;;;;;;5083107;28;19946;-76
2023/02/11 15:13:08;;;;;;;;;;;8.50;1.00;;;;;;5074714;28;19916;-75
2023/02/11 15:15:56;;;;;;;;;;;8.30;1.00;;;;;;5078048;28;20076;-75
2023/02/11 15:21:49;;;;;;;;;;;8.50;1.00;;;;;;5091522;28;19915;-75
2023/02/11 15:27:44;;;;;;;;;;;8.40;1.00;;;;;;5094456;28;19919;-74
2023/02/11 15:39:29;;;;;;;;;;;8.40;1.00;;;;;;5095474;28;20025;-74
2023/02/11 15:41:56;;;;;;;;;;;8.40;1.00;;;;;;5094343;28;19908;-75
2023/02/11 15:44:27;;;;;;;;;;;8.50;1.00;;;;;;5079771;28;19923;-74
2023/02/11 15:46:53;;;;;;;;;;;8.50;1.00;;;;;;5087892;28;19931;-70
2023/02/11 15:49:20;;;;;;;;;;;8.30;1.00;;;;;;5092308;28;19908;-70
2023/02/11 15:51:47;;;;;;;;;;;8.40;1.00;;;;;;5087610;28;20322;-70
2023/02/11 15:54:21;;;;;;;;;;;8.50;1.00;;;;;;5086197;28;20443;-70
2023/02/11 15:56:48;;;;;;;;;;;8.50;1.00;;;;;;5080006;28;19919;-71
2023/02/11 15:59:29;;;;;;;;;;;8.40;1.00;;;;;;5077684;28;19908;-70
2023/02/11 16:04:59;;;;;;;;;;;8.40;1.00;;;;;;5094224;28;19915;-84
2023/02/11 16:07:37;;;;;;;;;;;8.50;1.00;;;;;;5092200;28;19912;-85
2023/02/11 16:13:06;;;;;;;;;;;8.30;1.00;;;;;;5088786;28;19961;-84
2023/02/11 16:15:37;;;;;;;;;;;8.30;1.00;;;;;;5088174;28;19920;-76
2023/02/11 16:18:26;;;;;;;;;;;8.30;1.00;;;;;;5077958;28;19915;-76
2023/02/11 16:23:55;;;;;;;;;;;8.40;1.00;;;;;;5081382;28;19935;-76
2023/02/11 16:26:44;;;;;;;;;;;8.40;1.00;;;;;;5078018;28;20046;-76
2023/02/11 16:29:17;;;;;;;;;;;8.40;1.00;;;;;;5092446;28;19953;-76
2023/02/11 16:32:08;;;;;;;;;;;8.40;1.00;;;;;;5087718;28;19911;-76
2023/02/11 16:37:50;;;;;;;;;;;8.20;1.00;;;;;;5095255;28;19915;-76
2023/02/11 16:40:26;;;;;;;;;;;8.10;1.00;;;;;;5092938;28;19962;-75
2023/02/11 16:42:55;;;;;;;;;;;8.10;1.00;;;;;;5084975;28;20442;-76
2023/02/11 16:48:26;;;;;;;;;;;7.90;1.00;;;;;;5090483;28;20048;-76
2023/02/11 16:51:02;;;;;;;;;;;7.90;1.00;;;;;;5098119;28;19915;-76
2023/02/11 16:53:28;;;;;;;;;;;7.80;1.00;;;;;;5097720;28;19908;-76
2023/02/11 16:56:02;;;;;;;;;;;7.70;1.00;;;;;;5097817;28;19949;-76
2023/02/11 16:58:27;;;;;;;;;;;7.70;1.00;;;;;;5097577;28;19908;-76
2023/02/11 17:00:56;;;;;;;;;;;7.70;1.00;;;;;;5096798;28;20006;-77
2023/02/11 17:06:26;;;;;;;;;;;7.50;1.00;;;;;;5094517;28;19928;-76
2023/02/11 17:08:52;;;;;;;;;;;7.50;1.00;;;;;;5117741;28;19912;-76
2023/02/11 17:11:38;;;;;;;;;;;7.40;1.00;;;;;;5088174;28;19920;-75
2023/02/11 17:14:20;;;;;;;;;;;7.40;1.00;;;;;;5097218;28;19937;-76
2023/02/11 17:23:08;;;;;;;;;;;7.50;1.00;;;;;;5097260;28;19951;-83
2023/02/11 17:29:07;;;;;;;;;;;7.30;1.00;;;;;;5076763;28;19915;-84
2023/02/11 17:31:56;;;;;;;;;;;7.40;1.00;;;;;;5060868;28;19966;-84
2023/02/11 17:37:24;;;;;;;;;;;7.40;1.00;;;;;;5091534;28;19916;-83
2023/02/11 17:42:55;;;;;;;;;;;7.50;1.00;;;;;;5084459;28;19919;-83
2023/02/11 17:45:26;;;;;;;;;;;7.50;1.00;;;;;;5076334;28;19965;-83
2023/02/11 17:47:56;;;;;;;;;;;7.60;1.00;;;;;;5060502;28;19921;-81
2023/02/11 17:50:34;;;;;;;;;;;7.70;1.00;;;;;;5093803;28;19913;-81
2023/02/11 17:59:07;;;;;;;;;;;7.60;1.00;;;;;;5084248;28;20317;-80
2023/02/11 18:01:33;;;;;;;;;;;7.60;1.00;;;;;;5076389;28;19915;-83
2023/02/11 18:04:11;;;;;;;;;;;7.50;1.00;;;;;;5084952;28;20318;-84
2023/02/11 18:09:40;;;;;;;;;;;7.50;1.00;;;;;;5091025;28;20268;-83
2023/02/11 18:15:08;;;;;;;;;;;7.50;1.00;;;;;;5096362;28;19923;-85
2023/02/11 18:17:38;;;;;;;;;;;7.40;1.00;;;;;;5078406;28;19908;-79
2023/02/11 18:20:39;;;;;;;;;;;7.30;1.00;;;;;;5094522;28;19956;-81
2023/02/11 18:26:09;;;;;;;;;;;7.40;1.00;;;;;;5094389;28;19942;-80
2023/02/11 18:37:44;;;;;;;;;;;7.50;1.00;;;;;;5089565;28;19934;-81
2023/02/11 18:49:56;;;;;;;;;;;7.40;1.00;;;;;;5095083;28;19915;-80
2023/02/11 18:58:32;;;;;;;;;;;7.30;1.00;;;;;;5084664;28;19957;-80
2023/02/11 19:01:19;;;;;;;;;;;7.30;1.00;;;;;;5095086;28;19916;-81
2023/02/11 19:12:55;;;;;;;;;;;7.40;1.00;;;;;;5083907;28;20389;-83
2023/02/11 19:27:44;;;;;;;;;;;7.30;1.00;;;;;;5094342;28;19927;-73
2023/02/11 19:30:09;;;;;;;;;;;7.30;1.00;;;;;;5081356;28;19908;-73
2023/02/11 19:32:38;;;;;;;;;;;7.30;1.00;;;;;;5095279;28;19954;-75
2023/02/11 19:35:08;;;;;;;;;;;7.30;1.00;;;;;;5085179;28;19952;-77
2023/02/11 19:37:38;;;;;;;;;;;7.30;1.00;;;;;;5086338;28;19957;-77
2023/02/11 19:40:04;;;;;;;;;;;7.30;1.00;;;;;;5094199;28;19918;-77
2023/02/11 19:42:38;;;;;;;;;;;7.40;1.00;;;;;;5094189;28;19998;-77
2023/02/11 19:45:38;;;;;;;;;;;7.40;1.00;;;;;;5086626;28;19912;-76
2023/02/11 19:48:14;;;;;;;;;;;7.30;1.00;;;;;;5086779;28;19923;-76
2023/02/11 19:50:50;;;;;;;;;;;7.30;1.00;;;;;;5078456;28;19958;-77
2023/02/11 19:53:50;;;;;;;;;;;7.20;1.00;;;;;;5084447;28;19908;-76
2023/02/11 19:56:16;;;;;;;;;;;7.20;1.00;;;;;;5082537;28;20286;-77
2023/02/11 19:59:14;;;;;;;;;;;7.20;1.00;;;;;;5094235;28;19934;-76
2023/02/11 20:01:56;;;;;;;;;;;7.20;1.00;;;;;;5078914;28;20271;-77
2023/02/11 20:04:23;;;;;;;;;;;7.30;1.00;;;;;;5083078;28;19923;-76
2023/02/11 20:06:49;;;;;;;;;;;7.30;1.00;;;;;;5078627;28;19912;-78
2023/02/11 20:09:15;;;;;;;;;;;7.30;1.00;;;;;;5082769;28;19908;-74
2023/02/11 20:12:14;;;;;;;;;;;7.20;1.00;;;;;;5093510;28;19912;-76
2023/02/11 20:15:08;;;;;;;;;;;7.10;1.00;;;;;;5094292;28;19908;-76
2023/02/11 20:17:33;;;;;;;;;;;7.10;1.00;;;;;;5087332;28;19918;-76
2023/02/11 20:20:08;;;;;;;;;;;7.10;1.00;;;;;;5078059;28;19908;-84
2023/02/11 20:22:38;;;;;;;;;;;7.20;1.00;;;;;;5060233;28;20029;-84
2023/02/11 20:25:38;;;;;;;;;;;7.20;1.00;;;;;;5061190;28;19908;-84
2023/02/11 20:28:08;;;;;;;;;;;7.20;1.00;;;;;;5062758;28;19962;-84